Time;durP1;ratioP1;P1;durP2;ratioP2;P2;SDS_P1;SDS_P2;PMS_P1;PMS_P2;Temp;Humidity;BMP_temperature;BMP_pressure;BME280_temperature;BME280_humidity;BME280_pressure;Samples;Min_cycle;Max_cycle;Signal;HPM_P1;HPM_P2
2023/01/26 00:02:24;;;;;;;60.00;39.23;;;-0.20;99.90;;;;;;6136290;23;20401;-70
2023/01/26 00:04:52;;;;;;;67.10;38.27;;;-0.20;99.90;;;;;;6136206;23;20405;-70
2023/01/26 00:07:20;;;;;;;66.60;38.57;;;-0.30;99.90;;;;;;6124771;23;20929;-70
2023/01/26 00:09:48;;;;;;;67.20;40.97;;;-0.20;99.90;;;;;;6136178;23;20406;-70
2023/01/26 00:12:18;;;;;;;61.93;39.60;;;-0.20;99.90;;;;;;6136199;23;20406;-70
2023/01/26 00:14:51;;;;;;;65.33;39.90;;;-0.20;99.90;;;;;;6126718;23;20477;-70
2023/01/26 00:17:26;;;;;;;67.70;41.03;;;-0.20;99.90;;;;;;6136283;23;20424;-70
2023/01/26 00:19:58;;;;;;;60.60;37.13;;;-0.20;99.90;;;;;;6136506;23;20409;-70
2023/01/26 00:22:27;;;;;;;63.67;38.50;;;-0.20;99.90;;;;;;6136482;23;20848;-70
2023/01/26 00:24:55;;;;;;;64.33;38.07;;;-0.20;99.90;;;;;;6136321;23;20429;-70
2023/01/26 00:27:25;;;;;;;67.63;40.10;;;-0.20;99.90;;;;;;6126599;23;20440;-70
2023/01/26 00:29:53;;;;;;;60.03;37.33;;;-0.20;99.90;;;;;;6125183;23;20421;-70
2023/01/26 00:32:21;;;;;;;65.07;37.73;;;-0.20;99.90;;;;;;6136654;23;20402;-70
2023/01/26 00:34:49;;;;;;;60.70;38.07;;;-0.20;99.90;;;;;;6125273;23;20428;-70
2023/01/26 00:37:18;;;;;;;73.47;40.17;;;-0.20;99.90;;;;;;6125586;23;20457;-70
2023/01/26 00:39:46;;;;;;;64.60;37.20;;;-0.20;99.90;;;;;;6127187;23;20459;-70
2023/01/26 00:42:14;;;;;;;65.87;39.97;;;-0.20;99.90;;;;;;6138395;23;20916;-70
2023/01/26 00:44:44;;;;;;;63.93;38.50;;;-0.10;99.90;;;;;;6126883;23;20821;-70
2023/01/26 00:47:14;;;;;;;61.77;38.10;;;-0.20;99.90;;;;;;6128205;23;20433;-70
2023/01/26 00:49:42;;;;;;;68.97;38.00;;;-0.20;99.90;;;;;;6126701;23;20424;-70
2023/01/26 00:52:11;;;;;;;72.23;39.97;;;-0.10;99.90;;;;;;6138012;23;20394;-70
2023/01/26 00:54:39;;;;;;;70.70;41.83;;;-0.20;99.90;;;;;;6126622;23;20897;-70
2023/01/26 00:57:08;;;;;;;56.93;36.83;;;-0.20;99.90;;;;;;6126534;23;20433;-70
2023/01/26 00:59:36;;;;;;;71.87;39.30;;;-0.20;99.90;;;;;;6126540;23;20752;-70
2023/01/26 01:02:05;;;;;;;73.33;40.60;;;-0.20;99.90;;;;;;6126644;23;20448;-70
2023/01/26 01:04:34;;;;;;;73.30;42.40;;;-0.20;99.90;;;;;;6126451;23;20433;-70
2023/01/26 01:07:02;;;;;;;69.57;38.50;;;-0.20;99.90;;;;;;6126457;23;20528;-70
2023/01/26 01:09:30;;;;;;;69.50;43.63;;;-0.20;99.90;;;;;;6126465;23;20409;-70
2023/01/26 01:11:58;;;;;;;69.43;40.93;;;-0.20;99.90;;;;;;6126546;23;20828;-70
2023/01/26 01:14:27;;;;;;;67.27;37.73;;;-0.20;99.90;;;;;;6126509;23;20471;-70
2023/01/26 01:16:55;;;;;;;69.13;40.07;;;-0.20;99.90;;;;;;6126511;23;20444;-70
2023/01/26 01:19:26;;;;;;;65.73;40.63;;;-0.20;99.90;;;;;;6137638;23;20403;-70
2023/01/26 01:21:54;;;;;;;68.87;38.20;;;-0.20;99.90;;;;;;6126437;23;20500;-70
2023/01/26 01:24:22;;;;;;;71.30;43.10;;;-0.20;99.90;;;;;;6138032;23;20464;-70
2023/01/26 01:26:50;;;;;;;67.30;39.33;;;-0.20;99.90;;;;;;6126127;23;20928;-70
2023/01/26 01:29:18;;;;;;;70.30;40.40;;;-0.10;99.90;;;;;;6126270;23;20427;-70
2023/01/26 01:31:47;;;;;;;66.67;38.87;;;-0.10;99.90;;;;;;6126272;23;20423;-70
2023/01/26 01:34:15;;;;;;;69.67;40.80;;;-0.10;99.90;;;;;;6126301;23;20414;-70
2023/01/26 01:36:45;;;;;;;74.23;40.20;;;-0.10;99.90;;;;;;6126245;23;20980;-70
2023/01/26 01:39:13;;;;;;;61.33;38.03;;;-0.10;99.90;;;;;;6126359;23;20413;-70
2023/01/26 01:41:41;;;;;;;64.40;38.63;;;-0.10;99.90;;;;;;6137701;23;20407;-70
2023/01/26 01:44:18;;;;;;;71.83;40.00;;;-0.10;99.90;;;;;;6137832;23;20432;-70
2023/01/26 01:46:51;;;;;;;62.00;38.00;;;-0.10;99.90;;;;;;6126272;23;20444;-70
2023/01/26 01:49:22;;;;;;;71.00;40.80;;;-0.10;99.90;;;;;;6129519;23;20758;-70
2023/01/26 01:51:55;;;;;;;75.80;44.40;;;-0.10;99.90;;;;;;6143486;23;20389;-70
2023/01/26 01:54:28;;;;;;;68.23;37.20;;;-0.10;99.90;;;;;;6131739;23;20416;-70
2023/01/26 01:56:59;;;;;;;66.90;38.17;;;0.00;99.90;;;;;;6129384;23;20437;-70
2023/01/26 01:59:27;;;;;;;69.83;38.73;;;-0.10;99.90;;;;;;6129867;23;20448;-70
2023/01/26 02:01:56;;;;;;;67.13;37.80;;;-0.10;99.90;;;;;;6129768;23;20414;-70
2023/01/26 02:04:26;;;;;;;69.27;38.13;;;0.00;99.90;;;;;;6129654;23;20488;-70
2023/01/26 02:06:58;;;;;;;70.07;38.00;;;-0.10;99.90;;;;;;6131874;23;20501;-70
2023/01/26 02:12:23;;;;;;;69.30;38.27;;;0.00;99.90;;;;;;6083026;23;20424;-70
2023/01/26 02:14:53;;;;;;;70.53;41.20;;;0.00;99.90;;;;;;6130941;23;20468;-69
2023/01/26 02:17:21;;;;;;;73.30;41.30;;;0.00;99.90;;;;;;6141878;23;20491;-70
2023/01/26 02:20:00;;;;;;;65.93;37.77;;;0.00;99.90;;;;;;6128284;23;20500;-69
2023/01/26 02:22:42;;;;;;;64.90;37.33;;;0.00;99.90;;;;;;6126612;23;20492;-70
2023/01/26 02:25:18;;;;;;;69.97;38.73;;;0.00;99.90;;;;;;6127010;23;20476;-70
2023/01/26 02:27:48;;;;;;;70.73;40.93;;;0.00;99.90;;;;;;6130799;23;20940;-70
2023/01/26 02:30:18;;;;;;;65.23;40.13;;;0.00;99.90;;;;;;6131291;23;20524;-70
2023/01/26 02:32:47;;;;;;;65.57;37.20;;;0.00;99.90;;;;;;6129179;23;20476;-70
2023/01/26 02:35:15;;;;;;;75.43;41.70;;;0.00;99.90;;;;;;6126489;23;20417;-70
2023/01/26 02:37:43;;;;;;;68.97;42.17;;;0.00;99.90;;;;;;6137475;23;20421;-70
2023/01/26 02:40:22;;;;;;;73.50;43.40;;;0.00;99.90;;;;;;6125975;23;20432;-70
2023/01/26 02:42:53;;;;;;;74.43;40.87;;;0.00;99.90;;;;;;6125882;23;20737;-70
2023/01/26 02:45:21;;;;;;;63.63;38.20;;;0.10;99.90;;;;;;6125641;23;20459;-70
2023/01/26 02:47:50;;;;;;;74.17;41.67;;;0.00;99.90;;;;;;6125636;23;20440;-70
2023/01/26 02:50:18;;;;;;;80.40;40.47;;;0.10;99.90;;;;;;6125838;23;20516;-70
2023/01/26 02:52:46;;;;;;;69.20;38.33;;;0.10;99.90;;;;;;6125763;23;20420;-70
2023/01/26 02:55:24;;;;;;;73.80;41.80;;;0.10;99.90;;;;;;6125737;23;20445;-70
2023/01/26 02:57:56;;;;;;;75.73;41.03;;;0.10;99.90;;;;;;6125594;23;20472;-70
2023/01/26 03:00:25;;;;;;;76.73;41.07;;;0.10;99.90;;;;;;6126027;23;20743;-69
2023/01/26 03:02:58;;;;;;;76.07;40.53;;;0.10;99.90;;;;;;6136670;23;20404;-70
2023/01/26 03:05:26;;;;;;;70.13;40.30;;;0.10;99.90;;;;;;6137369;23;20504;-70
2023/01/26 03:07:55;;;;;;;72.57;40.93;;;0.10;99.90;;;;;;6125505;23;20520;-70
2023/01/26 03:10:29;;;;;;;81.07;42.10;;;0.10;99.90;;;;;;6126549;23;20412;-70
2023/01/26 03:12:59;;;;;;;81.50;42.67;;;0.10;99.90;;;;;;6126106;23;20500;-70
2023/01/26 03:15:42;;;;;;;74.20;42.93;;;0.10;99.90;;;;;;6125489;23;20424;-70
2023/01/26 03:29:25;;;;;;;73.53;39.77;;;0.20;99.90;;;;;;6125375;23;20405;-70
2023/01/26 03:31:58;;;;;;;81.10;44.40;;;0.20;99.90;;;;;;6126397;23;20413;-70
2023/01/26 03:34:28;;;;;;;79.30;42.60;;;0.20;99.90;;;;;;6125320;23;20484;-70
2023/01/26 03:36:57;;;;;;;83.57;44.40;;;0.20;99.90;;;;;;6125222;23;20464;-70
2023/01/26 03:56:20;;;;;;;80.07;42.93;;;0.30;99.90;;;;;;6125396;23;20893;-69
2023/01/26 03:58:52;;;;;;;74.33;39.17;;;0.20;99.90;;;;;;6126416;23;20803;-69
2023/01/26 04:01:26;;;;;;;73.93;37.63;;;0.20;99.90;;;;;;6125368;23;20931;-70
2023/01/26 04:09:36;;;;;;;72.70;39.20;;;0.30;99.90;;;;;;6125001;23;20719;-69
2023/01/26 04:12:04;;;;;;;75.63;38.37;;;0.30;99.90;;;;;;6136686;23;20721;-70
2023/01/26 04:22:59;;;;;;;59.53;33.97;;;0.30;99.90;;;;;;6124899;23;20414;-69
2023/01/26 04:25:28;;;;;;;68.53;37.00;;;0.30;99.90;;;;;;6125767;23;20441;-69
2023/01/26 04:27:57;;;;;;;60.50;34.60;;;0.30;99.90;;;;;;6124882;23;20447;-69
2023/01/26 04:30:26;;;;;;;58.37;34.83;;;0.30;99.90;;;;;;6125216;23;20749;-70
2023/01/26 04:32:55;;;;;;;61.80;33.37;;;0.30;99.90;;;;;;6125463;23;20898;-71
2023/01/26 04:35:24;;;;;;;62.03;34.23;;;0.30;99.90;;;;;;6125211;23;20524;-69
2023/01/26 04:37:52;;;;;;;67.63;37.80;;;0.30;99.90;;;;;;6124842;23;20461;-69
2023/01/26 04:40:22;;;;;;;60.43;33.20;;;0.30;99.90;;;;;;6124806;23;20485;-70
2023/01/26 04:42:50;;;;;;;59.40;34.23;;;0.30;99.90;;;;;;6124813;23;20413;-70
2023/01/26 04:45:19;;;;;;;62.63;34.60;;;0.30;99.90;;;;;;6124633;23;20456;-70
2023/01/26 04:47:47;;;;;;;61.70;33.97;;;0.30;99.90;;;;;;6124743;23;20437;-70
2023/01/26 04:50:18;;;;;;;67.00;35.53;;;0.40;99.90;;;;;;6124770;23;20504;-70
2023/01/26 04:52:47;;;;;;;56.77;31.30;;;0.40;99.90;;;;;;6125162;23;20447;-70
2023/01/26 04:55:16;;;;;;;64.63;33.90;;;0.40;99.90;;;;;;6124756;23;20423;-70
2023/01/26 04:57:44;;;;;;;60.90;33.97;;;0.40;99.90;;;;;;6135918;23;20820;-70
2023/01/26 05:00:13;;;;;;;60.63;33.73;;;0.40;99.90;;;;;;6124655;23;20421;-71
2023/01/26 05:02:42;;;;;;;58.63;32.20;;;0.40;99.90;;;;;;6125026;23;20590;-70
2023/01/26 05:05:11;;;;;;;61.67;34.00;;;0.40;99.90;;;;;;6124637;23;20422;-70
2023/01/26 05:07:41;;;;;;;58.07;29.63;;;0.40;99.90;;;;;;6124590;23;20954;-70
2023/01/26 05:10:10;;;;;;;58.37;30.30;;;0.40;99.90;;;;;;6124673;23;20479;-70
2023/01/26 05:12:55;;;;;;;56.97;31.70;;;0.40;99.90;;;;;;6124686;23;20893;-70
2023/01/26 05:15:28;;;;;;;52.63;30.70;;;0.40;99.90;;;;;;6136025;23;20381;-70
2023/01/26 05:18:02;;;;;;;57.50;30.20;;;0.40;99.90;;;;;;6124496;23;20441;-70
2023/01/26 05:20:38;;;;;;;55.80;30.03;;;0.40;99.90;;;;;;6124783;23;20440;-70
2023/01/26 05:23:27;;;;;;;52.23;29.50;;;0.40;99.90;;;;;;6124635;23;20468;-70
2023/01/26 05:26:15;;;;;;;56.20;31.37;;;0.50;99.90;;;;;;6125420;23;20435;-70
2023/01/26 05:28:52;;;;;;;59.97;33.97;;;0.50;99.90;;;;;;6126544;23;20475;-70
2023/01/26 05:31:20;;;;;;;52.87;29.80;;;0.50;99.90;;;;;;6126376;23;20421;-70
2023/01/26 05:33:49;;;;;;;47.63;27.87;;;0.50;99.90;;;;;;6126462;23;20417;-70
2023/01/26 05:36:21;;;;;;;46.67;27.20;;;0.50;99.90;;;;;;6126354;23;20502;-71
2023/01/26 05:38:51;;;;;;;45.40;27.83;;;0.50;99.90;;;;;;6126379;23;20925;-70
2023/01/26 05:41:24;;;;;;;43.23;26.20;;;0.50;99.90;;;;;;6126322;23;20412;-70
2023/01/26 05:44:14;;;;;;;37.87;22.00;;;0.50;99.90;;;;;;6126582;23;20416;-70
2023/01/26 05:47:05;;;;;;;40.97;23.90;;;0.50;99.90;;;;;;6127426;23;20520;-71
2023/01/26 05:49:33;;;;;;;40.13;23.93;;;0.50;99.90;;;;;;6126310;23;20417;-70
2023/01/26 05:52:01;;;;;;;41.60;23.70;;;0.50;99.90;;;;;;6126312;23;20515;-70
2023/01/26 05:54:32;;;;;;;38.03;23.20;;;0.60;99.90;;;;;;6126336;23;20413;-71
2023/01/26 05:57:00;;;;;;;37.57;21.47;;;0.60;99.90;;;;;;6126185;23;20492;-70
2023/01/26 05:59:30;;;;;;;37.30;23.57;;;0.60;99.90;;;;;;6126225;23;20416;-71
2023/01/26 06:01:58;;;;;;;38.73;22.87;;;0.60;99.90;;;;;;6126181;23;20424;-70
2023/01/26 06:04:27;;;;;;;33.70;21.40;;;0.70;99.90;;;;;;6126186;23;20469;-71
2023/01/26 06:06:59;;;;;;;38.10;23.73;;;0.70;99.90;;;;;;6126140;23;20452;-70
2023/01/26 06:09:39;;;;;;;38.07;21.63;;;0.70;99.90;;;;;;6126161;23;20492;-71
2023/01/26 06:12:37;;;;;;;37.97;22.03;;;0.70;99.90;;;;;;6126840;23;20416;-71
2023/01/26 06:15:18;;;;;;;34.53;21.93;;;0.70;99.90;;;;;;6126079;23;20726;-71
2023/01/26 06:17:48;;;;;;;31.63;20.47;;;0.70;99.90;;;;;;6126478;23;21013;-71
2023/01/26 06:20:18;;;;;;;32.53;19.43;;;0.70;99.90;;;;;;6126905;23;20794;-71
2023/01/26 06:23:00;;;;;;;34.10;20.97;;;0.70;99.90;;;;;;6126083;23;20504;-71
2023/01/26 06:25:33;;;;;;;34.80;21.50;;;0.70;99.90;;;;;;6126130;23;20504;-71
2023/01/26 06:28:02;;;;;;;34.17;22.27;;;0.70;99.90;;;;;;6126332;23;20436;-71
2023/01/26 06:30:31;;;;;;;35.37;21.83;;;0.70;99.90;;;;;;6125935;23;20424;-71
2023/01/26 06:33:02;;;;;;;29.13;18.33;;;0.70;99.90;;;;;;6126376;23;20418;-71
2023/01/26 06:35:35;;;;;;;33.80;19.43;;;0.70;99.90;;;;;;6125877;23;20748;-71
2023/01/26 06:38:06;;;;;;;32.50;21.10;;;0.80;99.90;;;;;;6125809;23;20472;-71
2023/01/26 06:40:36;;;;;;;32.07;18.67;;;0.80;99.90;;;;;;6125824;23;20520;-71
2023/01/26 06:43:05;;;;;;;33.80;21.00;;;0.80;99.90;;;;;;6125734;23;20490;-72
2023/01/26 06:45:33;;;;;;;31.63;20.50;;;0.80;99.90;;;;;;6126137;23;20434;-72
2023/01/26 06:48:02;;;;;;;34.60;20.10;;;0.80;99.90;;;;;;6126337;23;20449;-71
2023/01/26 06:50:32;;;;;;;29.30;19.70;;;0.80;99.90;;;;;;6125732;23;20413;-71
2023/01/26 06:53:16;;;;;;;31.80;20.70;;;0.80;99.90;;;;;;6125888;23;20457;-71
2023/01/26 06:55:54;;;;;;;33.07;20.73;;;0.80;99.90;;;;;;6125692;23;20469;-71
2023/01/26 06:58:34;;;;;;;34.67;21.30;;;0.80;99.90;;;;;;6125590;23;20441;-71
2023/01/26 07:01:24;;;;;;;34.87;20.77;;;0.80;99.90;;;;;;6135827;23;20448;-71
2023/01/26 07:03:54;;;;;;;34.37;21.63;;;0.80;99.90;;;;;;6137042;23;20413;-71
2023/01/26 07:06:23;;;;;;;36.60;20.83;;;0.80;99.90;;;;;;6125481;23;20488;-71
2023/01/26 07:08:51;;;;;;;33.83;20.83;;;0.80;99.90;;;;;;6127224;23;20409;-71
2023/01/26 07:11:21;;;;;;;33.70;19.73;;;0.80;99.90;;;;;;6136848;23;20771;-71
2023/01/26 07:13:49;;;;;;;36.03;20.60;;;0.80;99.90;;;;;;6125628;23;20420;-71
2023/01/26 07:16:18;;;;;;;27.00;16.30;;;0.80;99.90;;;;;;6137070;23;20413;-71
2023/01/26 07:18:46;;;;;;;37.03;21.10;;;0.90;99.90;;;;;;6137150;23;20407;-71
2023/01/26 07:21:17;;;;;;;38.50;22.27;;;0.90;99.90;;;;;;6125427;23;20432;-71
2023/01/26 07:23:45;;;;;;;36.50;21.50;;;0.90;99.90;;;;;;6137152;23;20390;-71
2023/01/26 07:26:13;;;;;;;37.47;21.50;;;0.90;99.90;;;;;;6125281;23;20421;-71
2023/01/26 07:28:43;;;;;;;34.33;21.40;;;0.90;99.90;;;;;;6136699;23;20402;-71
2023/01/26 07:31:12;;;;;;;35.40;21.80;;;0.90;99.90;;;;;;6136642;23;20398;-71
2023/01/26 07:33:40;;;;;;;38.73;23.17;;;0.90;99.90;;;;;;6136620;23;20428;-71
2023/01/26 07:36:09;;;;;;;38.10;21.30;;;0.90;99.90;;;;;;6125292;23;20422;-71
2023/01/26 07:38:38;;;;;;;36.73;23.10;;;0.90;99.90;;;;;;6125250;23;20411;-71
2023/01/26 07:41:08;;;;;;;40.20;23.10;;;0.90;99.90;;;;;;6136540;23;20480;-71
2023/01/26 07:43:37;;;;;;;37.30;22.83;;;0.90;99.90;;;;;;6125294;23;20422;-71
2023/01/26 07:46:11;;;;;;;39.50;22.57;;;0.90;99.90;;;;;;6136866;23;20418;-71
2023/01/26 07:48:40;;;;;;;40.07;22.33;;;0.90;99.90;;;;;;6136378;23;20476;-71
2023/01/26 07:51:09;;;;;;;47.87;24.73;;;1.00;99.90;;;;;;6136819;23;20399;-71
2023/01/26 07:53:41;;;;;;;35.87;21.93;;;1.00;99.90;;;;;;6125260;23;20421;-71
2023/01/26 07:56:10;;;;;;;36.50;23.10;;;1.00;99.90;;;;;;6125178;23;20416;-71
2023/01/26 07:58:39;;;;;;;34.60;21.60;;;1.00;99.90;;;;;;6136428;23;20427;-71
2023/01/26 08:01:11;;;;;;;36.80;22.20;;;1.00;99.90;;;;;;6125037;23;20412;-71
2023/01/26 08:03:40;;;;;;;43.70;22.47;;;1.00;99.90;;;;;;6137188;23;20836;-71
2023/01/26 08:06:09;;;;;;;37.83;20.90;;;1.00;99.90;;;;;;6136312;23;20403;-71
2023/01/26 08:08:41;;;;;;;39.57;21.43;;;1.00;99.90;;;;;;6124971;23;20450;-71
2023/01/26 08:11:10;;;;;;;39.10;23.50;;;1.00;99.90;;;;;;6136671;23;20402;-71
2023/01/26 08:13:38;;;;;;;40.17;23.33;;;1.00;99.90;;;;;;6126754;23;20496;-71
2023/01/26 08:16:10;;;;;;;43.50;22.27;;;1.10;99.90;;;;;;6136258;23;20456;-72
2023/01/26 08:18:41;;;;;;;41.23;23.43;;;1.10;99.90;;;;;;6137242;23;20376;-71
2023/01/26 08:21:11;;;;;;;39.73;23.13;;;1.10;99.90;;;;;;6137022;23;20392;-70
2023/01/26 08:23:40;;;;;;;35.73;22.30;;;1.10;99.90;;;;;;6125085;23;20898;-70
2023/01/26 08:26:10;;;;;;;43.10;25.67;;;1.10;99.90;;;;;;6125007;23;20904;-71
2023/01/26 08:28:39;;;;;;;41.00;23.47;;;1.10;99.90;;;;;;6136875;23;20451;-71
2023/01/26 08:31:10;;;;;;;44.07;25.57;;;1.10;99.90;;;;;;6125010;23;20425;-70
2023/01/26 08:33:41;;;;;;;47.33;25.33;;;1.10;99.90;;;;;;6124980;23;20443;-71
2023/01/26 08:36:12;;;;;;;41.10;22.80;;;1.20;99.90;;;;;;6125213;23;20737;-70
2023/01/26 08:38:41;;;;;;;43.43;24.70;;;1.20;99.90;;;;;;6136651;23;20382;-71
2023/01/26 08:41:09;;;;;;;40.77;24.47;;;1.20;99.90;;;;;;6124819;23;20891;-72
2023/01/26 08:43:38;;;;;;;43.63;23.90;;;1.20;99.90;;;;;;6126030;23;20425;-71
2023/01/26 08:46:06;;;;;;;40.57;23.90;;;1.20;99.90;;;;;;6127984;23;20414;-71
2023/01/26 08:48:36;;;;;;;44.03;24.07;;;1.20;99.90;;;;;;6124602;23;20450;-71
2023/01/26 08:51:08;;;;;;;44.13;24.77;;;1.20;99.90;;;;;;6127005;23;20410;-72
2023/01/26 08:53:37;;;;;;;43.23;24.87;;;1.20;99.90;;;;;;6136108;23;20390;-72
2023/01/26 08:56:08;;;;;;;41.00;24.67;;;1.20;99.90;;;;;;6124713;23;20504;-72
2023/01/26 08:58:36;;;;;;;46.67;25.03;;;1.20;99.90;;;;;;6127526;23;20426;-72
2023/01/26 09:01:05;;;;;;;44.80;24.47;;;1.20;99.90;;;;;;6125585;23;20469;-72
2023/01/26 09:03:33;;;;;;;47.10;26.23;;;1.20;99.90;;;;;;6126602;23;20913;-72
2023/01/26 09:06:03;;;;;;;48.70;27.10;;;1.30;99.90;;;;;;6126684;23;20420;-72
2023/01/26 09:08:32;;;;;;;54.90;28.17;;;1.30;99.90;;;;;;6126511;23;20474;-72
2023/01/26 09:11:00;;;;;;;42.60;25.30;;;1.30;99.90;;;;;;6126694;23;20418;-72
2023/01/26 09:13:28;;;;;;;51.80;27.80;;;1.30;99.90;;;;;;6138252;23;20731;-72
2023/01/26 09:15:57;;;;;;;47.90;24.87;;;1.30;99.90;;;;;;6138297;23;20861;-72
2023/01/26 09:18:25;;;;;;;51.50;25.60;;;1.30;99.90;;;;;;6126569;23;20469;-72
2023/01/26 09:20:54;;;;;;;47.37;26.53;;;1.30;99.90;;;;;;6137937;23;20465;-72
2023/01/26 09:23:22;;;;;;;60.40;26.60;;;1.30;99.90;;;;;;6138200;23;20406;-73
2023/01/26 09:25:54;;;;;;;50.40;25.93;;;1.30;99.90;;;;;;6127987;23;20886;-73
2023/01/26 09:28:22;;;;;;;49.83;27.27;;;1.40;99.90;;;;;;6137651;23;20442;-73
2023/01/26 09:30:50;;;;;;;58.83;27.07;;;1.40;99.90;;;;;;6137731;23;20452;-72
2023/01/26 09:33:20;;;;;;;55.70;25.93;;;1.40;99.90;;;;;;6137812;23;20484;-72
2023/01/26 09:35:48;;;;;;;59.50;28.30;;;1.40;99.90;;;;;;6126868;23;20879;-73
2023/01/26 09:38:17;;;;;;;65.70;28.13;;;1.40;99.90;;;;;;6126886;23;20927;-72
2023/01/26 09:40:55;;;;;;;63.73;27.03;;;1.40;99.90;;;;;;6137742;23;20488;-72
2023/01/26 09:43:36;;;;;;;72.00;27.80;;;1.40;99.90;;;;;;6126466;23;20415;-72
2023/01/26 09:46:17;;;;;;;54.73;27.20;;;1.40;99.90;;;;;;6126143;23;20937;-73
2023/01/26 09:48:55;;;;;;;58.57;26.53;;;1.40;99.90;;;;;;6126322;23;20431;-72
2023/01/26 09:51:28;;;;;;;69.27;28.63;;;1.50;99.90;;;;;;6138071;23;20379;-73
2023/01/26 09:53:59;;;;;;;65.63;28.93;;;1.50;99.90;;;;;;6138350;23;20386;-73
2023/01/26 09:56:31;;;;;;;53.23;29.17;;;1.50;99.90;;;;;;6137855;23;20379;-72
2023/01/26 09:59:06;;;;;;;63.63;29.43;;;1.50;99.90;;;;;;6137627;23;20685;-73
2023/01/26 10:01:40;;;;;;;82.03;30.10;;;1.50;99.90;;;;;;6126303;23;20420;-72
2023/01/26 10:04:18;;;;;;;64.43;30.63;;;1.50;99.90;;;;;;6126234;23;20514;-73
2023/01/26 10:06:47;;;;;;;54.47;26.90;;;1.60;99.90;;;;;;6137825;23;20946;-72
2023/01/26 10:09:37;;;;;;;72.30;28.93;;;1.60;99.90;;;;;;6128227;23;20917;-72
2023/01/26 10:12:14;;;;;;;54.83;30.00;;;1.60;99.90;;;;;;6125938;23;20854;-72
2023/01/26 10:14:46;;;;;;;55.03;26.50;;;1.70;99.90;;;;;;6137528;23;20391;-72
2023/01/26 10:17:19;;;;;;;57.50;28.70;;;1.70;99.90;;;;;;6125966;23;20467;-73
2023/01/26 10:19:52;;;;;;;62.27;27.83;;;1.80;99.90;;;;;;6137853;23;20391;-73
2023/01/26 10:22:28;;;;;;;79.17;28.80;;;1.80;99.90;;;;;;6126159;23;20754;-73
2023/01/26 10:24:59;;;;;;;55.10;26.73;;;1.80;99.90;;;;;;6125985;23;20454;-72
2023/01/26 10:27:28;;;;;;;67.67;29.53;;;1.90;99.90;;;;;;6125886;23;20477;-72
2023/01/26 10:29:58;;;;;;;54.63;26.90;;;1.90;99.90;;;;;;6137204;23;20434;-72
2023/01/26 10:32:26;;;;;;;69.83;28.03;;;1.90;99.90;;;;;;6125901;23;20424;-73
2023/01/26 10:34:54;;;;;;;55.53;28.17;;;1.90;99.90;;;;;;6137344;23;20399;-72
2023/01/26 10:37:26;;;;;;;56.23;27.73;;;1.90;99.90;;;;;;6137258;23;20424;-73
2023/01/26 10:39:59;;;;;;;73.10;28.03;;;2.00;99.90;;;;;;6125940;23;20452;-73
2023/01/26 10:42:29;;;;;;;60.57;29.43;;;2.00;99.90;;;;;;6137486;23;20402;-73
2023/01/26 10:45:00;;;;;;;64.70;29.10;;;2.00;99.90;;;;;;6138109;23;20434;-74
2023/01/26 10:47:29;;;;;;;64.33;27.90;;;2.10;99.90;;;;;;6127556;23;20429;-73
2023/01/26 10:50:15;;;;;;;64.80;26.50;;;2.10;99.90;;;;;;6137085;23;20440;-73
2023/01/26 10:52:58;;;;;;;77.57;28.70;;;2.10;99.90;;;;;;6137523;23;20390;-73
2023/01/26 10:55:26;;;;;;;54.43;26.00;;;2.20;99.90;;;;;;6137088;23;20386;-73
2023/01/26 10:57:54;;;;;;;59.13;26.30;;;2.20;99.90;;;;;;6127065;23;20465;-73
2023/01/26 11:00:28;;;;;;;69.57;27.50;;;2.20;99.90;;;;;;6136983;23;20408;-73
2023/01/26 11:03:04;;;;;;;62.33;26.73;;;2.30;99.90;;;;;;6127538;23;20778;-73
2023/01/26 11:05:32;;;;;;;47.40;24.20;;;2.30;99.90;;;;;;6125716;23;20411;-72
2023/01/26 11:08:02;;;;;;;48.07;24.03;;;2.30;99.90;;;;;;6126890;23;20933;-73
2023/01/26 11:10:32;;;;;;;56.53;25.10;;;2.40;99.90;;;;;;6137632;23;20410;-73
2023/01/26 11:13:12;;;;;;;62.50;27.10;;;2.40;99.90;;;;;;6136914;23;20401;-73
2023/01/26 11:15:44;;;;;;;59.07;27.23;;;2.50;99.90;;;;;;6136843;23;20386;-73
2023/01/26 11:18:20;;;;;;;98.43;28.80;;;2.50;99.90;;;;;;6125383;23;20445;-73
2023/01/26 11:20:56;;;;;;;69.23;25.00;;;2.50;99.90;;;;;;6125480;23;20809;-73
2023/01/26 11:23:36;;;;;;;107.47;27.27;;;2.60;99.90;;;;;;6136740;23;20447;-73
2023/01/26 11:26:31;;;;;;;72.23;26.47;;;2.60;99.90;;;;;;6125567;23;20413;-73
2023/01/26 11:29:18;;;;;;;60.60;24.63;;;2.60;99.90;;;;;;6122884;23;20775;-73
2023/01/26 11:31:56;;;;;;;55.70;24.67;;;2.70;99.90;;;;;;6137331;23;20390;-72
2023/01/26 11:34:34;;;;;;;37.90;21.43;;;2.70;99.90;;;;;;6136961;23;20414;-72
2023/01/26 11:37:44;;;;;;;43.20;22.03;;;2.80;99.90;;;;;;6125538;23;20439;-72
2023/01/26 11:40:32;;;;;;;46.07;22.70;;;2.80;99.90;;;;;;6047827;23;20395;-72
2023/01/26 11:43:20;;;;;;;47.40;21.93;;;2.80;99.90;;;;;;6118805;23;20422;-72
2023/01/26 11:46:04;;;;;;;51.27;22.90;;;2.90;99.90;;;;;;6126866;23;20919;-73
2023/01/26 11:48:43;;;;;;;48.43;22.90;;;2.90;99.90;;;;;;6137806;23;20471;-72
2023/01/26 11:51:20;;;;;;;56.80;22.77;;;3.00;99.90;;;;;;6126756;23;20393;-72
2023/01/26 11:54:08;;;;;;;46.23;22.43;;;3.00;99.90;;;;;;6136526;23;20390;-73
2023/01/26 11:56:45;;;;;;;46.90;22.70;;;3.10;99.90;;;;;;6136750;23;20415;-75
2023/01/26 11:59:18;;;;;;;48.97;21.10;;;3.10;99.90;;;;;;6125227;23;20412;-72
2023/01/26 12:01:51;;;;;;;46.80;23.47;;;3.10;99.90;;;;;;6125239;23;20427;-73
2023/01/26 12:04:22;;;;;;;42.70;22.00;;;3.10;99.90;;;;;;6125125;23;20885;-73
2023/01/26 12:06:54;;;;;;;40.60;22.70;;;3.20;99.90;;;;;;6125066;23;20429;-73
2023/01/26 12:09:31;;;;;;;52.87;24.83;;;3.20;99.90;;;;;;6125013;23;20435;-73
2023/01/26 12:12:04;;;;;;;45.73;22.90;;;3.30;99.90;;;;;;6136742;23;20380;-73
2023/01/26 12:14:38;;;;;;;46.80;22.90;;;3.30;99.90;;;;;;6137231;23;20391;-73
2023/01/26 12:17:24;;;;;;;44.53;20.50;;;3.30;99.90;;;;;;6136885;23;20488;-73
2023/01/26 12:20:03;;;;;;;45.47;21.47;;;3.40;99.90;;;;;;6125261;23;20419;-73
2023/01/26 12:22:34;;;;;;;47.73;21.03;;;3.50;99.90;;;;;;6125110;23;20976;-73
2023/01/26 12:25:19;;;;;;;52.20;22.20;;;3.50;99.90;;;;;;6136957;23;20389;-73
2023/01/26 12:27:54;;;;;;;51.50;24.23;;;3.50;99.90;;;;;;6136788;23;20421;-73
2023/01/26 12:30:31;;;;;;;85.37;26.40;;;3.50;99.90;;;;;;6125560;23;20556;-73
2023/01/26 12:32:59;;;;;;;66.50;22.83;;;3.60;99.90;;;;;;6125586;23;20403;-73
2023/01/26 12:35:43;;;;;;;47.07;21.13;;;3.60;99.90;;;;;;6136174;23;20758;-73
2023/01/26 12:38:17;;;;;;;51.83;21.00;;;3.70;99.90;;;;;;6124853;23;20442;-73
2023/01/26 12:40:58;;;;;;;51.47;23.30;;;3.70;99.90;;;;;;6125979;23;20512;-73
2023/01/26 12:43:40;;;;;;;53.57;21.57;;;3.70;99.90;;;;;;6136572;23;20378;-73
2023/01/26 12:46:10;;;;;;;51.73;23.43;;;3.80;99.90;;;;;;6136457;23;20793;-73
2023/01/26 12:48:44;;;;;;;46.07;21.90;;;3.80;99.90;;;;;;6136140;23;20401;-73
2023/01/26 12:51:20;;;;;;;55.03;22.73;;;3.80;99.90;;;;;;6136413;23;20424;-73
2023/01/26 12:53:54;;;;;;;44.60;22.97;;;3.90;99.90;;;;;;6124824;23;20745;-73
2023/01/26 12:56:28;;;;;;;48.33;24.70;;;3.90;99.90;;;;;;6136048;23;20393;-73
2023/01/26 12:58:58;;;;;;;57.43;23.63;;;4.00;99.90;;;;;;6124805;23;20878;-73
2023/01/26 13:01:36;;;;;;;52.37;24.77;;;4.00;99.90;;;;;;6136535;23;20915;-73
2023/01/26 13:04:09;;;;;;;55.70;24.70;;;4.00;99.90;;;;;;6136217;23;20386;-73
2023/01/26 13:06:39;;;;;;;56.53;25.13;;;4.10;99.90;;;;;;6124769;23;20550;-73
2023/01/26 13:09:20;;;;;;;57.47;27.90;;;4.10;99.90;;;;;;6136083;23;20470;-73
2023/01/26 13:11:52;;;;;;;66.40;26.63;;;4.20;99.90;;;;;;6136555;23;20469;-73
2023/01/26 13:14:30;;;;;;;52.43;26.03;;;4.30;99.90;;;;;;6136920;23;20441;-73
2023/01/26 13:17:18;;;;;;;57.57;28.83;;;4.40;99.90;;;;;;6136340;23;20425;-73
2023/01/26 13:19:58;;;;;;;53.07;26.43;;;4.40;99.90;;;;;;6124623;23;20413;-73
2023/01/26 13:22:41;;;;;;;52.10;27.67;;;4.50;99.90;;;;;;6124714;23;20855;-74
2023/01/26 13:25:16;;;;;;;51.40;25.50;;;4.60;99.90;;;;;;6126623;23;20849;-73
2023/01/26 13:27:46;;;;;;;52.43;28.00;;;4.60;99.90;;;;;;6124660;23;20483;-74
2023/01/26 13:30:38;;;;;;;61.43;27.80;;;4.70;99.90;;;;;;6124961;23;20905;-73
2023/01/26 13:33:18;;;;;;;48.87;26.87;;;4.70;99.90;;;;;;6136650;23;20818;-73
2023/01/26 13:35:48;;;;;;;48.53;25.43;;;4.70;99.90;;;;;;6126923;23;20397;-73
2023/01/26 13:38:24;;;;;;;48.43;26.40;;;4.80;99.90;;;;;;6135890;23;20424;-73
2023/01/26 13:40:53;;;;;;;44.20;25.10;;;4.80;99.90;;;;;;6135917;23;20897;-73
2023/01/26 13:43:32;;;;;;;47.87;26.17;;;4.80;99.90;;;;;;6124565;23;20812;-73
2023/01/26 13:46:15;;;;;;;49.60;26.07;;;4.80;99.90;;;;;;6136023;23;20417;-73
2023/01/26 13:48:45;;;;;;;55.50;28.50;;;4.90;99.90;;;;;;6137997;23;20378;-73